sensor_id;sensor_type;location;lat;lon;timestamp;P1;durP1;ratioP1;P2;durP2;ratioP2
37903;SDS011;23738;50.422;18.758;2022-11-20T00:01:16;276.10;;;102.93;;
37903;SDS011;23738;50.422;18.758;2022-11-20T00:03:46;278.53;;;107.50;;
37903;SDS011;23738;50.422;18.758;2022-11-20T00:06:14;285.67;;;102.13;;
37903;SDS011;23738;50.422;18.758;2022-11-20T00:08:42;321.07;;;111.20;;
37903;SDS011;23738;50.422;18.758;2022-11-20T00:11:10;311.03;;;112.90;;
37903;SDS011;23738;50.422;18.758;2022-11-20T00:13:42;315.33;;;112.40;;
37903;SDS011;23738;50.422;18.758;2022-11-20T00:16:10;360.17;;;124.63;;
37903;SDS011;23738;50.422;18.758;2022-11-20T00:18:37;334.43;;;119.23;;
37903;SDS011;23738;50.422;18.758;2022-11-20T00:21:04;353.30;;;126.40;;
37903;SDS011;23738;50.422;18.758;2022-11-20T00:23:32;322.87;;;120.20;;
37903;SDS011;23738;50.422;18.758;2022-11-20T00:26:02;354.33;;;124.03;;
37903;SDS011;23738;50.422;18.758;2022-11-20T00:28:33;338.10;;;126.17;;
37903;SDS011;23738;50.422;18.758;2022-11-20T00:31:00;335.07;;;118.13;;
37903;SDS011;23738;50.422;18.758;2022-11-20T00:33:34;326.47;;;120.40;;
37903;SDS011;23738;50.422;18.758;2022-11-20T00:36:02;329.53;;;114.27;;
37903;SDS011;23738;50.422;18.758;2022-11-20T00:38:29;337.00;;;120.13;;
37903;SDS011;23738;50.422;18.758;2022-11-20T00:41:00;306.67;;;112.30;;
37903;SDS011;23738;50.422;18.758;2022-11-20T00:43:30;294.73;;;105.50;;
37903;SDS011;23738;50.422;18.758;2022-11-20T00:45:59;326.70;;;115.13;;
37903;SDS011;23738;50.422;18.758;2022-11-20T00:48:28;306.30;;;108.30;;
37903;SDS011;23738;50.422;18.758;2022-11-20T00:50:54;301.63;;;113.30;;
37903;SDS011;23738;50.422;18.758;2022-11-20T00:53:20;300.77;;;107.07;;
37903;SDS011;23738;50.422;18.758;2022-11-20T00:55:54;296.83;;;103.80;;
37903;SDS011;23738;50.422;18.758;2022-11-20T00:58:29;291.83;;;106.07;;
37903;SDS011;23738;50.422;18.758;2022-11-20T01:01:02;289.00;;;104.77;;
37903;SDS011;23738;50.422;18.758;2022-11-20T01:03:32;308.27;;;109.13;;
37903;SDS011;23738;50.422;18.758;2022-11-20T01:06:00;326.93;;;113.43;;
37903;SDS011;23738;50.422;18.758;2022-11-20T01:08:29;344.00;;;114.83;;
37903;SDS011;23738;50.422;18.758;2022-11-20T01:11:00;331.60;;;113.70;;
37903;SDS011;23738;50.422;18.758;2022-11-20T01:13:31;316.20;;;107.07;;
37903;SDS011;23738;50.422;18.758;2022-11-20T01:16:04;332.10;;;112.77;;
37903;SDS011;23738;50.422;18.758;2022-11-20T01:18:30;322.13;;;109.07;;
37903;SDS011;23738;50.422;18.758;2022-11-20T01:21:00;326.33;;;108.47;;
37903;SDS011;23738;50.422;18.758;2022-11-20T01:23:32;287.67;;;102.20;;
37903;SDS011;23738;50.422;18.758;2022-11-20T01:26:00;289.43;;;101.93;;
37903;SDS011;23738;50.422;18.758;2022-11-20T01:28:30;284.93;;;104.23;;
37903;SDS011;23738;50.422;18.758;2022-11-20T01:30:57;280.23;;;100.20;;
37903;SDS011;23738;50.422;18.758;2022-11-20T01:33:23;288.93;;;106.23;;
37903;SDS011;23738;50.422;18.758;2022-11-20T01:35:50;283.93;;;99.33;;
37903;SDS011;23738;50.422;18.758;2022-11-20T01:38:17;284.13;;;100.57;;
37903;SDS011;23738;50.422;18.758;2022-11-20T01:40:43;276.27;;;97.47;;
37903;SDS011;23738;50.422;18.758;2022-11-20T01:45:52;277.03;;;98.83;;
37903;SDS011;23738;50.422;18.758;2022-11-20T01:48:47;272.57;;;96.70;;
37903;SDS011;23738;50.422;18.758;2022-11-20T01:51:05;268.03;;;97.13;;
37903;SDS011;23738;50.422;18.758;2022-11-20T01:53:36;259.50;;;94.30;;
37903;SDS011;23738;50.422;18.758;2022-11-20T01:56:02;257.37;;;95.00;;
37903;SDS011;23738;50.422;18.758;2022-11-20T01:58:35;246.97;;;95.17;;
37903;SDS011;23738;50.422;18.758;2022-11-20T02:01:04;258.13;;;96.87;;
37903;SDS011;23738;50.422;18.758;2022-11-20T02:03:30;259.50;;;97.10;;
37903;SDS011;23738;50.422;18.758;2022-11-20T02:06:13;255.77;;;94.03;;
37903;SDS011;23738;50.422;18.758;2022-11-20T02:08:49;234.40;;;87.77;;
37903;SDS011;23738;50.422;18.758;2022-11-20T02:11:17;254.53;;;95.40;;
37903;SDS011;23738;50.422;18.758;2022-11-20T02:13:43;244.37;;;90.13;;
37903;SDS011;23738;50.422;18.758;2022-11-20T02:16:26;251.97;;;92.57;;
37903;SDS011;23738;50.422;18.758;2022-11-20T02:19:01;226.60;;;83.47;;
37903;SDS011;23738;50.422;18.758;2022-11-20T02:21:34;246.20;;;89.73;;
37903;SDS011;23738;50.422;18.758;2022-11-20T02:24:14;232.47;;;89.93;;
37903;SDS011;23738;50.422;18.758;2022-11-20T02:26:52;226.92;;;87.75;;
37903;SDS011;23738;50.422;18.758;2022-11-20T02:29:26;238.47;;;88.23;;
37903;SDS011;23738;50.422;18.758;2022-11-20T02:31:58;226.70;;;86.30;;
37903;SDS011;23738;50.422;18.758;2022-11-20T02:34:26;226.83;;;82.80;;
37903;SDS011;23738;50.422;18.758;2022-11-20T02:36:52;224.23;;;85.07;;
37903;SDS011;23738;50.422;18.758;2022-11-20T02:39:19;225.83;;;85.03;;
37903;SDS011;23738;50.422;18.758;2022-11-20T02:41:46;225.83;;;82.67;;
37903;SDS011;23738;50.422;18.758;2022-11-20T02:44:12;221.07;;;85.13;;
37903;SDS011;23738;50.422;18.758;2022-11-20T02:46:38;217.00;;;84.30;;
37903;SDS011;23738;50.422;18.758;2022-11-20T02:49:04;209.97;;;80.57;;
37903;SDS011;23738;50.422;18.758;2022-11-20T02:51:31;209.73;;;81.23;;
37903;SDS011;23738;50.422;18.758;2022-11-20T02:53:58;207.60;;;81.33;;
37903;SDS011;23738;50.422;18.758;2022-11-20T02:56:23;216.23;;;80.40;;
37903;SDS011;23738;50.422;18.758;2022-11-20T02:58:50;204.10;;;79.37;;
37903;SDS011;23738;50.422;18.758;2022-11-20T03:01:16;209.37;;;79.93;;
37903;SDS011;23738;50.422;18.758;2022-11-20T03:03:42;212.87;;;81.90;;
37903;SDS011;23738;50.422;18.758;2022-11-20T03:06:07;201.33;;;78.77;;
37903;SDS011;23738;50.422;18.758;2022-11-20T03:08:34;218.53;;;82.47;;
37903;SDS011;23738;50.422;18.758;2022-11-20T03:11:04;209.10;;;82.33;;
37903;SDS011;23738;50.422;18.758;2022-11-20T03:13:32;204.17;;;81.63;;
37903;SDS011;23738;50.422;18.758;2022-11-20T03:16:03;199.97;;;81.13;;
37903;SDS011;23738;50.422;18.758;2022-11-20T03:18:35;213.73;;;79.43;;
37903;SDS011;23738;50.422;18.758;2022-11-20T03:21:01;207.20;;;80.93;;
37903;SDS011;23738;50.422;18.758;2022-11-20T03:23:28;204.57;;;78.30;;
37903;SDS011;23738;50.422;18.758;2022-11-20T03:25:56;210.30;;;83.03;;
37903;SDS011;23738;50.422;18.758;2022-11-20T03:28:33;190.67;;;75.33;;
37903;SDS011;23738;50.422;18.758;2022-11-20T03:31:04;196.37;;;75.27;;
37903;SDS011;23738;50.422;18.758;2022-11-20T03:33:32;201.37;;;80.67;;
37903;SDS011;23738;50.422;18.758;2022-11-20T03:36:02;189.13;;;74.97;;
37903;SDS011;23738;50.422;18.758;2022-11-20T03:38:30;213.13;;;81.50;;
37903;SDS011;23738;50.422;18.758;2022-11-20T03:41:04;203.33;;;77.70;;
37903;SDS011;23738;50.422;18.758;2022-11-20T03:43:30;191.27;;;76.07;;
37903;SDS011;23738;50.422;18.758;2022-11-20T03:45:56;198.13;;;74.47;;
37903;SDS011;23738;50.422;18.758;2022-11-20T03:48:21;190.73;;;75.27;;
37903;SDS011;23738;50.422;18.758;2022-11-20T03:50:47;182.67;;;73.43;;
37903;SDS011;23738;50.422;18.758;2022-11-20T03:53:13;187.70;;;72.07;;
37903;SDS011;23738;50.422;18.758;2022-11-20T03:55:40;194.83;;;77.30;;
37903;SDS011;23738;50.422;18.758;2022-11-20T03:58:07;195.87;;;74.60;;
37903;SDS011;23738;50.422;18.758;2022-11-20T04:00:33;207.03;;;82.23;;
37903;SDS011;23738;50.422;18.758;2022-11-20T04:03:00;207.97;;;81.13;;
37903;SDS011;23738;50.422;18.758;2022-11-20T04:05:27;195.00;;;81.27;;
37903;SDS011;23738;50.422;18.758;2022-11-20T04:07:53;225.30;;;86.30;;
37903;SDS011;23738;50.422;18.758;2022-11-20T04:10:19;208.70;;;83.40;;
37903;SDS011;23738;50.422;18.758;2022-11-20T04:12:45;207.20;;;78.70;;
37903;SDS011;23738;50.422;18.758;2022-11-20T04:15:11;206.60;;;79.67;;
37903;SDS011;23738;50.422;18.758;2022-11-20T04:17:37;216.83;;;85.07;;
37903;SDS011;23738;50.422;18.758;2022-11-20T04:20:03;195.27;;;76.07;;
37903;SDS011;23738;50.422;18.758;2022-11-20T04:22:30;206.07;;;81.07;;
37903;SDS011;23738;50.422;18.758;2022-11-20T04:24:56;198.97;;;77.40;;
37903;SDS011;23738;50.422;18.758;2022-11-20T04:27:22;208.90;;;78.73;;
37903;SDS011;23738;50.422;18.758;2022-11-20T04:29:47;186.77;;;75.32;;
37903;SDS011;23738;50.422;18.758;2022-11-20T04:32:13;197.63;;;76.57;;
37903;SDS011;23738;50.422;18.758;2022-11-20T04:34:39;204.07;;;81.77;;
37903;SDS011;23738;50.422;18.758;2022-11-20T04:37:05;212.70;;;79.87;;
37903;SDS011;23738;50.422;18.758;2022-11-20T04:39:30;206.93;;;81.93;;
37903;SDS011;23738;50.422;18.758;2022-11-20T04:41:56;218.80;;;85.67;;
37903;SDS011;23738;50.422;18.758;2022-11-20T04:44:40;199.53;;;77.30;;
37903;SDS011;23738;50.422;18.758;2022-11-20T04:47:06;206.17;;;83.50;;
37903;SDS011;23738;50.422;18.758;2022-11-20T04:49:32;203.70;;;79.77;;
37903;SDS011;23738;50.422;18.758;2022-11-20T04:51:58;217.07;;;85.47;;
37903;SDS011;23738;50.422;18.758;2022-11-20T04:54:24;211.07;;;82.63;;
37903;SDS011;23738;50.422;18.758;2022-11-20T04:56:50;197.63;;;79.37;;
37903;SDS011;23738;50.422;18.758;2022-11-20T04:59:16;211.60;;;81.33;;
37903;SDS011;23738;50.422;18.758;2022-11-20T05:01:42;218.33;;;83.43;;
37903;SDS011;23738;50.422;18.758;2022-11-20T05:04:07;209.87;;;83.63;;
37903;SDS011;23738;50.422;18.758;2022-11-20T05:06:33;216.30;;;81.77;;
37903;SDS011;23738;50.422;18.758;2022-11-20T05:08:59;224.90;;;88.47;;
37903;SDS011;23738;50.422;18.758;2022-11-20T05:11:25;257.43;;;103.53;;
37903;SDS011;23738;50.422;18.758;2022-11-20T05:13:53;246.13;;;101.23;;
37903;SDS011;23738;50.422;18.758;2022-11-20T05:16:20;225.80;;;90.83;;
37903;SDS011;23738;50.422;18.758;2022-11-20T05:18:49;223.37;;;89.73;;
37903;SDS011;23738;50.422;18.758;2022-11-20T05:21:18;230.90;;;91.47;;
37903;SDS011;23738;50.422;18.758;2022-11-20T05:23:44;220.37;;;84.17;;
37903;SDS011;23738;50.422;18.758;2022-11-20T05:26:12;213.53;;;85.27;;
37903;SDS011;23738;50.422;18.758;2022-11-20T05:28:41;209.10;;;83.83;;
37903;SDS011;23738;50.422;18.758;2022-11-20T05:31:11;209.20;;;81.57;;
37903;SDS011;23738;50.422;18.758;2022-11-20T05:33:41;199.77;;;77.47;;
37903;SDS011;23738;50.422;18.758;2022-11-20T05:36:08;203.53;;;76.30;;
37903;SDS011;23738;50.422;18.758;2022-11-20T05:38:35;202.23;;;81.07;;
37903;SDS011;23738;50.422;18.758;2022-11-20T05:41:12;192.90;;;75.93;;
37903;SDS011;23738;50.422;18.758;2022-11-20T05:43:41;199.90;;;80.50;;
37903;SDS011;23738;50.422;18.758;2022-11-20T05:46:10;200.07;;;74.37;;
37903;SDS011;23738;50.422;18.758;2022-11-20T05:48:39;200.40;;;79.83;;
37903;SDS011;23738;50.422;18.758;2022-11-20T05:51:07;198.13;;;75.10;;
37903;SDS011;23738;50.422;18.758;2022-11-20T05:53:36;196.73;;;77.83;;
37903;SDS011;23738;50.422;18.758;2022-11-20T05:56:04;186.43;;;75.77;;
37903;SDS011;23738;50.422;18.758;2022-11-20T05:58:33;190.27;;;75.93;;
37903;SDS011;23738;50.422;18.758;2022-11-20T06:01:03;190.73;;;78.50;;
37903;SDS011;23738;50.422;18.758;2022-11-20T06:03:35;180.18;;;72.85;;
37903;SDS011;23738;50.422;18.758;2022-11-20T06:06:01;190.17;;;77.63;;
37903;SDS011;23738;50.422;18.758;2022-11-20T06:08:29;194.43;;;72.93;;
37903;SDS011;23738;50.422;18.758;2022-11-20T06:10:55;169.77;;;65.53;;
37903;SDS011;23738;50.422;18.758;2022-11-20T06:13:21;178.47;;;70.80;;
37903;SDS011;23738;50.422;18.758;2022-11-20T06:15:52;185.63;;;73.13;;
37903;SDS011;23738;50.422;18.758;2022-11-20T06:18:18;169.47;;;69.60;;
37903;SDS011;23738;50.422;18.758;2022-11-20T06:20:45;198.60;;;74.90;;
37903;SDS011;23738;50.422;18.758;2022-11-20T06:23:13;172.40;;;71.97;;
37903;SDS011;23738;50.422;18.758;2022-11-20T06:25:43;203.13;;;73.00;;
37903;SDS011;23738;50.422;18.758;2022-11-20T06:28:08;184.17;;;72.87;;
37903;SDS011;23738;50.422;18.758;2022-11-20T06:30:34;178.97;;;71.67;;
37903;SDS011;23738;50.422;18.758;2022-11-20T06:33:01;188.13;;;73.97;;
37903;SDS011;23738;50.422;18.758;2022-11-20T06:35:27;197.50;;;77.47;;
37903;SDS011;23738;50.422;18.758;2022-11-20T06:37:53;191.77;;;75.87;;
37903;SDS011;23738;50.422;18.758;2022-11-20T06:40:19;196.57;;;81.53;;
37903;SDS011;23738;50.422;18.758;2022-11-20T06:42:44;199.53;;;80.37;;
37903;SDS011;23738;50.422;18.758;2022-11-20T06:45:10;202.80;;;81.67;;
37903;SDS011;23738;50.422;18.758;2022-11-20T06:47:36;198.27;;;78.13;;
37903;SDS011;23738;50.422;18.758;2022-11-20T06:50:02;190.23;;;72.67;;
37903;SDS011;23738;50.422;18.758;2022-11-20T06:52:28;212.47;;;87.30;;
37903;SDS011;23738;50.422;18.758;2022-11-20T06:54:54;206.33;;;83.23;;
37903;SDS011;23738;50.422;18.758;2022-11-20T06:57:19;207.43;;;83.43;;
37903;SDS011;23738;50.422;18.758;2022-11-20T06:59:45;212.43;;;83.77;;
37903;SDS011;23738;50.422;18.758;2022-11-20T07:02:11;206.80;;;84.13;;
37903;SDS011;23738;50.422;18.758;2022-11-20T07:04:38;220.40;;;84.07;;
37903;SDS011;23738;50.422;18.758;2022-11-20T07:07:04;224.90;;;90.33;;
37903;SDS011;23738;50.422;18.758;2022-11-20T07:09:31;250.97;;;99.03;;
37903;SDS011;23738;50.422;18.758;2022-11-20T07:11:58;234.40;;;92.43;;
37903;SDS011;23738;50.422;18.758;2022-11-20T07:14:24;229.37;;;94.47;;
37903;SDS011;23738;50.422;18.758;2022-11-20T07:16:50;215.47;;;90.83;;
37903;SDS011;23738;50.422;18.758;2022-11-20T07:19:16;224.77;;;93.33;;
37903;SDS011;23738;50.422;18.758;2022-11-20T07:21:42;254.87;;;101.43;;
37903;SDS011;23738;50.422;18.758;2022-11-20T07:24:07;276.53;;;111.63;;
37903;SDS011;23738;50.422;18.758;2022-11-20T07:26:33;385.70;;;152.20;;
37903;SDS011;23738;50.422;18.758;2022-11-20T07:28:59;293.13;;;115.93;;
37903;SDS011;23738;50.422;18.758;2022-11-20T07:31:24;309.87;;;125.97;;
37903;SDS011;23738;50.422;18.758;2022-11-20T07:33:50;285.37;;;110.80;;
37903;SDS011;23738;50.422;18.758;2022-11-20T07:36:16;265.10;;;113.57;;
37903;SDS011;23738;50.422;18.758;2022-11-20T07:38:42;266.60;;;110.23;;
37903;SDS011;23738;50.422;18.758;2022-11-20T07:41:08;249.73;;;109.53;;
37903;SDS011;23738;50.422;18.758;2022-11-20T07:43:34;238.27;;;103.33;;
37903;SDS011;23738;50.422;18.758;2022-11-20T07:45:59;252.97;;;104.87;;
37903;SDS011;23738;50.422;18.758;2022-11-20T07:48:25;232.57;;;97.67;;
37903;SDS011;23738;50.422;18.758;2022-11-20T07:50:55;227.43;;;99.20;;
37903;SDS011;23738;50.422;18.758;2022-11-20T07:53:22;205.50;;;92.30;;
37903;SDS011;23738;50.422;18.758;2022-11-20T07:55:48;220.37;;;89.60;;
37903;SDS011;23738;50.422;18.758;2022-11-20T07:58:16;223.53;;;94.53;;
37903;SDS011;23738;50.422;18.758;2022-11-20T08:00:42;230.67;;;95.20;;
37903;SDS011;23738;50.422;18.758;2022-11-20T08:03:08;248.10;;;103.57;;
37903;SDS011;23738;50.422;18.758;2022-11-20T08:05:34;215.60;;;91.27;;
37903;SDS011;23738;50.422;18.758;2022-11-20T08:07:59;230.97;;;98.77;;
37903;SDS011;23738;50.422;18.758;2022-11-20T08:10:25;226.60;;;95.07;;
37903;SDS011;23738;50.422;18.758;2022-11-20T08:12:51;242.63;;;103.33;;
37903;SDS011;23738;50.422;18.758;2022-11-20T08:15:37;214.93;;;95.93;;
37903;SDS011;23738;50.422;18.758;2022-11-20T08:18:05;226.83;;;98.43;;
37903;SDS011;23738;50.422;18.758;2022-11-20T08:20:34;221.20;;;101.17;;
37903;SDS011;23738;50.422;18.758;2022-11-20T08:23:01;228.27;;;96.77;;
37903;SDS011;23738;50.422;18.758;2022-11-20T08:25:30;237.00;;;103.40;;
37903;SDS011;23738;50.422;18.758;2022-11-20T08:27:58;195.40;;;86.00;;
37903;SDS011;23738;50.422;18.758;2022-11-20T08:30:26;200.57;;;87.37;;
37903;SDS011;23738;50.422;18.758;2022-11-20T08:32:52;239.27;;;93.20;;
37903;SDS011;23738;50.422;18.758;2022-11-20T08:35:19;213.17;;;90.57;;
37903;SDS011;23738;50.422;18.758;2022-11-20T08:37:47;156.80;;;68.07;;
37903;SDS011;23738;50.422;18.758;2022-11-20T08:40:13;142.70;;;61.43;;
37903;SDS011;23738;50.422;18.758;2022-11-20T08:42:47;129.73;;;55.13;;
37903;SDS011;23738;50.422;18.758;2022-11-20T08:45:14;166.97;;;67.63;;
37903;SDS011;23738;50.422;18.758;2022-11-20T08:47:41;160.63;;;64.70;;
37903;SDS011;23738;50.422;18.758;2022-11-20T08:50:08;190.47;;;76.73;;
37903;SDS011;23738;50.422;18.758;2022-11-20T08:52:35;147.83;;;65.33;;
37903;SDS011;23738;50.422;18.758;2022-11-20T08:55:01;162.97;;;75.60;;
37903;SDS011;23738;50.422;18.758;2022-11-20T08:57:31;180.43;;;80.17;;
37903;SDS011;23738;50.422;18.758;2022-11-20T09:00:00;203.90;;;89.77;;
37903;SDS011;23738;50.422;18.758;2022-11-20T09:02:26;196.07;;;87.13;;
37903;SDS011;23738;50.422;18.758;2022-11-20T09:04:52;211.47;;;92.10;;
37903;SDS011;23738;50.422;18.758;2022-11-20T09:07:20;205.23;;;89.13;;
37903;SDS011;23738;50.422;18.758;2022-11-20T09:09:46;208.10;;;90.73;;
37903;SDS011;23738;50.422;18.758;2022-11-20T09:12:12;186.30;;;85.03;;
37903;SDS011;23738;50.422;18.758;2022-11-20T09:14:39;155.47;;;74.03;;
37903;SDS011;23738;50.422;18.758;2022-11-20T09:17:04;193.80;;;89.20;;
37903;SDS011;23738;50.422;18.758;2022-11-20T09:19:32;136.77;;;67.10;;
37903;SDS011;23738;50.422;18.758;2022-11-20T09:21:59;146.60;;;69.63;;
37903;SDS011;23738;50.422;18.758;2022-11-20T09:24:25;148.80;;;65.63;;
37903;SDS011;23738;50.422;18.758;2022-11-20T09:26:52;139.30;;;68.20;;
37903;SDS011;23738;50.422;18.758;2022-11-20T09:29:18;134.60;;;65.60;;
37903;SDS011;23738;50.422;18.758;2022-11-20T09:31:44;146.17;;;70.23;;
37903;SDS011;23738;50.422;18.758;2022-11-20T09:34:10;139.33;;;67.10;;
37903;SDS011;23738;50.422;18.758;2022-11-20T09:36:35;123.40;;;59.83;;
37903;SDS011;23738;50.422;18.758;2022-11-20T09:39:01;128.00;;;65.40;;
37903;SDS011;23738;50.422;18.758;2022-11-20T09:47:31;92.27;;;46.57;;
37903;SDS011;23738;50.422;18.758;2022-11-20T09:55:47;109.93;;;56.23;;
37903;SDS011;23738;50.422;18.758;2022-11-20T09:58:24;101.43;;;52.53;;
37903;SDS011;23738;50.422;18.758;2022-11-20T10:01:03;93.83;;;50.57;;
37903;SDS011;23738;50.422;18.758;2022-11-20T10:03:37;95.47;;;51.23;;
37903;SDS011;23738;50.422;18.758;2022-11-20T10:06:30;107.23;;;51.33;;
37903;SDS011;23738;50.422;18.758;2022-11-20T10:11:56;113.23;;;56.70;;
37903;SDS011;23738;50.422;18.758;2022-11-20T10:14:35;109.83;;;58.13;;
37903;SDS011;23738;50.422;18.758;2022-11-20T10:20:27;118.87;;;60.90;;
37903;SDS011;23738;50.422;18.758;2022-11-20T10:26:11;98.83;;;55.37;;
37903;SDS011;23738;50.422;18.758;2022-11-20T10:29:12;125.50;;;64.43;;
37903;SDS011;23738;50.422;18.758;2022-11-20T10:31:42;102.90;;;54.20;;
37903;SDS011;23738;50.422;18.758;2022-11-20T10:34:29;96.47;;;51.57;;
37903;SDS011;23738;50.422;18.758;2022-11-20T10:37:00;107.83;;;55.67;;
37903;SDS011;23738;50.422;18.758;2022-11-20T10:42:41;130.57;;;65.17;;
37903;SDS011;23738;50.422;18.758;2022-11-20T10:50:40;119.77;;;63.87;;
37903;SDS011;23738;50.422;18.758;2022-11-20T10:56:22;116.60;;;62.17;;
37903;SDS011;23738;50.422;18.758;2022-11-20T10:59:15;97.00;;;52.93;;
37903;SDS011;23738;50.422;18.758;2022-11-20T11:01:57;113.17;;;54.93;;
37903;SDS011;23738;50.422;18.758;2022-11-20T11:06:58;91.53;;;48.27;;
37903;SDS011;23738;50.422;18.758;2022-11-20T11:09:37;86.53;;;45.90;;
37903;SDS011;23738;50.422;18.758;2022-11-20T11:12:07;82.33;;;44.23;;
37903;SDS011;23738;50.422;18.758;2022-11-20T11:14:41;91.90;;;46.87;;
37903;SDS011;23738;50.422;18.758;2022-11-20T11:25:24;89.07;;;48.90;;
37903;SDS011;23738;50.422;18.758;2022-11-20T11:28:02;81.97;;;45.03;;
37903;SDS011;23738;50.422;18.758;2022-11-20T11:30:46;96.92;;;50.38;;
37903;SDS011;23738;50.422;18.758;2022-11-20T11:35:54;93.10;;;49.97;;
37903;SDS011;23738;50.422;18.758;2022-11-20T11:41:06;88.33;;;47.37;;
37903;SDS011;23738;50.422;18.758;2022-11-20T11:43:36;92.00;;;47.83;;
37903;SDS011;23738;50.422;18.758;2022-11-20T11:46:29;97.13;;;49.70;;
37903;SDS011;23738;50.422;18.758;2022-11-20T11:49:13;94.73;;;51.37;;
37903;SDS011;23738;50.422;18.758;2022-11-20T11:51:56;93.17;;;49.10;;
37903;SDS011;23738;50.422;18.758;2022-11-20T11:57:08;97.27;;;52.37;;
37903;SDS011;23738;50.422;18.758;2022-11-20T12:05:20;107.37;;;55.83;;
37903;SDS011;23738;50.422;18.758;2022-11-20T12:13:41;107.97;;;55.57;;
37903;SDS011;23738;50.422;18.758;2022-11-20T12:16:17;96.50;;;50.03;;
37903;SDS011;23738;50.422;18.758;2022-11-20T12:18:46;99.87;;;50.80;;
37903;SDS011;23738;50.422;18.758;2022-11-20T12:27:22;95.93;;;49.13;;
37903;SDS011;23738;50.422;18.758;2022-11-20T12:30:08;107.60;;;55.40;;
37903;SDS011;23738;50.422;18.758;2022-11-20T12:38:30;104.07;;;51.63;;
37903;SDS011;23738;50.422;18.758;2022-11-20T12:41:25;87.77;;;44.93;;
37903;SDS011;23738;50.422;18.758;2022-11-20T12:44:52;91.07;;;46.30;;
37903;SDS011;23738;50.422;18.758;2022-11-20T12:59:27;89.60;;;45.33;;
37903;SDS011;23738;50.422;18.758;2022-11-20T13:08:06;75.30;;;38.30;;
37903;SDS011;23738;50.422;18.758;2022-11-20T13:10:38;73.03;;;34.77;;
37903;SDS011;23738;50.422;18.758;2022-11-20T13:18:48;91.23;;;45.50;;
37903;SDS011;23738;50.422;18.758;2022-11-20T13:21:19;84.57;;;43.50;;
37903;SDS011;23738;50.422;18.758;2022-11-20T13:23:44;79.90;;;39.93;;
37903;SDS011;23738;50.422;18.758;2022-11-20T13:26:17;86.17;;;42.37;;
37903;SDS011;23738;50.422;18.758;2022-11-20T13:28:59;84.77;;;39.30;;
37903;SDS011;23738;50.422;18.758;2022-11-20T13:34:02;79.77;;;38.20;;
37903;SDS011;23738;50.422;18.758;2022-11-20T13:36:31;99.73;;;45.93;;
37903;SDS011;23738;50.422;18.758;2022-11-20T13:38:57;98.67;;;46.67;;
37903;SDS011;23738;50.422;18.758;2022-11-20T13:44:10;95.60;;;47.13;;
37903;SDS011;23738;50.422;18.758;2022-11-20T13:46:41;103.00;;;48.80;;
37903;SDS011;23738;50.422;18.758;2022-11-20T13:58:05;105.80;;;48.53;;
37903;SDS011;23738;50.422;18.758;2022-11-20T14:03:38;109.03;;;50.50;;
37903;SDS011;23738;50.422;18.758;2022-11-20T14:06:05;122.27;;;57.33;;
37903;SDS011;23738;50.422;18.758;2022-11-20T14:08:47;125.60;;;59.50;;
37903;SDS011;23738;50.422;18.758;2022-11-20T14:11:20;119.57;;;57.20;;
37903;SDS011;23738;50.422;18.758;2022-11-20T14:16:28;102.70;;;50.13;;
37903;SDS011;23738;50.422;18.758;2022-11-20T14:18:58;109.00;;;53.77;;
37903;SDS011;23738;50.422;18.758;2022-11-20T14:21:47;99.20;;;46.77;;
37903;SDS011;23738;50.422;18.758;2022-11-20T14:24:23;151.87;;;70.33;;
37903;SDS011;23738;50.422;18.758;2022-11-20T14:26:50;109.37;;;51.83;;
37903;SDS011;23738;50.422;18.758;2022-11-20T14:29:18;120.07;;;58.53;;
37903;SDS011;23738;50.422;18.758;2022-11-20T14:31:47;138.20;;;72.67;;
37903;SDS011;23738;50.422;18.758;2022-11-20T14:34:21;128.60;;;63.80;;
37903;SDS011;23738;50.422;18.758;2022-11-20T14:36:52;123.27;;;62.17;;
37903;SDS011;23738;50.422;18.758;2022-11-20T14:39:21;115.33;;;53.93;;
37903;SDS011;23738;50.422;18.758;2022-11-20T14:41:57;127.65;;;61.37;;
37903;SDS011;23738;50.422;18.758;2022-11-20T14:44:32;118.17;;;58.03;;
37903;SDS011;23738;50.422;18.758;2022-11-20T14:47:02;133.00;;;62.67;;
37903;SDS011;23738;50.422;18.758;2022-11-20T14:49:29;131.17;;;64.37;;
37903;SDS011;23738;50.422;18.758;2022-11-20T14:52:00;120.37;;;58.53;;
37903;SDS011;23738;50.422;18.758;2022-11-20T14:54:49;115.87;;;59.33;;
37903;SDS011;23738;50.422;18.758;2022-11-20T14:57:27;97.73;;;45.30;;
37903;SDS011;23738;50.422;18.758;2022-11-20T15:00:18;78.20;;;39.70;;
37903;SDS011;23738;50.422;18.758;2022-11-20T15:02:43;72.37;;;33.20;;
37903;SDS011;23738;50.422;18.758;2022-11-20T15:05:11;71.50;;;37.23;;
37903;SDS011;23738;50.422;18.758;2022-11-20T15:07:39;68.47;;;33.90;;
37903;SDS011;23738;50.422;18.758;2022-11-20T15:10:11;67.43;;;32.60;;
37903;SDS011;23738;50.422;18.758;2022-11-20T15:17:48;87.37;;;39.67;;
37903;SDS011;23738;50.422;18.758;2022-11-20T15:20:15;72.87;;;35.23;;
37903;SDS011;23738;50.422;18.758;2022-11-20T15:22:42;74.13;;;31.50;;
37903;SDS011;23738;50.422;18.758;2022-11-20T15:25:12;71.87;;;33.70;;
37903;SDS011;23738;50.422;18.758;2022-11-20T15:27:41;86.60;;;38.77;;
37903;SDS011;23738;50.422;18.758;2022-11-20T15:30:14;90.03;;;41.33;;
37903;SDS011;23738;50.422;18.758;2022-11-20T15:32:44;77.43;;;37.10;;
37903;SDS011;23738;50.422;18.758;2022-11-20T15:35:11;91.30;;;41.40;;
37903;SDS011;23738;50.422;18.758;2022-11-20T15:37:39;87.50;;;38.20;;
37903;SDS011;23738;50.422;18.758;2022-11-20T15:40:06;97.17;;;42.33;;
37903;SDS011;23738;50.422;18.758;2022-11-20T15:42:34;82.47;;;37.80;;
37903;SDS011;23738;50.422;18.758;2022-11-20T15:45:00;103.67;;;44.20;;
37903;SDS011;23738;50.422;18.758;2022-11-20T15:47:29;93.57;;;41.80;;
37903;SDS011;23738;50.422;18.758;2022-11-20T15:49:59;90.63;;;41.23;;
37903;SDS011;23738;50.422;18.758;2022-11-20T15:52:25;95.30;;;44.60;;
37903;SDS011;23738;50.422;18.758;2022-11-20T15:54:51;81.67;;;38.57;;
37903;SDS011;23738;50.422;18.758;2022-11-20T15:57:17;83.80;;;41.60;;
37903;SDS011;23738;50.422;18.758;2022-11-20T15:59:42;79.77;;;37.57;;
37903;SDS011;23738;50.422;18.758;2022-11-20T16:02:10;78.13;;;38.60;;
37903;SDS011;23738;50.422;18.758;2022-11-20T16:04:37;85.60;;;38.43;;
37903;SDS011;23738;50.422;18.758;2022-11-20T16:07:03;83.37;;;40.40;;
37903;SDS011;23738;50.422;18.758;2022-11-20T16:09:29;80.57;;;39.90;;
37903;SDS011;23738;50.422;18.758;2022-11-20T16:11:55;81.33;;;38.17;;
37903;SDS011;23738;50.422;18.758;2022-11-20T16:14:23;81.60;;;40.03;;
37903;SDS011;23738;50.422;18.758;2022-11-20T16:17:07;82.87;;;39.33;;